Terminal Aerodrome Forecast
Issued by NWS

Home | Current Version | Previous Version | Text Only | Print | Product List | Glossary On
Versions: 1 2 3 4 5 6 7 8 9 10 11 12 13 14
000
FTUS45 KRIW 242338
TAFRKS
TAF
KRKS 242338Z 2500/2524 26012G20KT P6SM -SHRA SCT015 OVC030
     FM250100 27017G25KT P6SM VCSH SCT030 BKN050
     FM250900 26014KT P6SM VCSH SCT040 BKN070
     FM251700 29018G28KT P6SM VCSH SCT025 BKN040
     FM252300 05010KT P6SM VCSH SCT035 BKN050=

USA.gov is the U.S. government's official web portal to all federal, state and local government web resources and services.